Time;durP1;ratioP1;P1;durP2;ratioP2;P2;SDS_P1;SDS_P2;PMS_P1;PMS_P2;Temp;Humidity;BMP_temperature;BMP_pressure;BME280_temperature;BME280_humidity;BME280_pressure;Samples;Min_cycle;Max_cycle;Signal;HPM_P1;HPM_P2
2021/08/07 00:01:57;;;;;;;10.68;4.80;;;;;;;13.30;97.53;98210.45;4134333;83;21046;-84
2021/08/07 00:07:59;;;;;;;12.20;5.25;;;;;;;13.29;97.38;98213.03;4143673;83;21670;-82
2021/08/07 00:14:00;;;;;;;10.50;4.83;;;;;;;13.27;96.91;98217.57;4147075;83;21035;-82
2021/08/07 00:20:05;;;;;;;10.55;4.58;;;;;;;13.20;96.77;98215.50;4132355;83;21096;-82
2021/08/07 00:26:06;;;;;;;9.73;4.70;;;;;;;13.00;96.35;98212.58;4123379;83;21646;-82
2021/08/07 00:32:07;;;;;;;6.40;4.00;;;;;;;12.81;96.30;98216.49;4138178;83;21040;-82
2021/08/07 00:38:09;;;;;;;15.95;4.67;;;;;;;12.63;96.06;98230.39;4130223;83;21070;-83
2021/08/07 00:44:11;;;;;;;7.95;4.25;;;;;;;12.41;96.32;98233.13;4120605;83;21039;-82
2021/08/07 00:50:15;;;;;;;8.83;3.90;;;;;;;12.31;96.81;98242.22;4135236;83;21082;-82
2021/08/07 00:56:17;;;;;;;9.98;4.03;;;;;;;12.35;96.85;98232.80;4118336;83;21069;-82
2021/08/07 01:02:25;;;;;;;7.05;4.53;;;;;;;12.30;96.39;98240.66;4135804;83;21573;-83
2021/08/07 01:08:33;;;;;;;9.28;4.25;;;;;;;12.18;96.67;98243.29;4127675;84;21091;-83
2021/08/07 01:14:41;;;;;;;8.20;4.20;;;;;;;11.89;96.52;98245.25;4129971;83;21978;-83
2021/08/07 01:20:47;;;;;;;;;;;;;;;11.98;97.04;98244.24;4128610;83;21047;-83
2021/08/07 01:27:19;;;;;;;7.80;4.75;;;;;;;11.79;96.81;98250.99;4109813;84;20178;-83
2021/08/07 01:33:26;;;;;;;10.50;4.28;;;;;;;11.73;97.04;98249.85;4060269;84;21122;-83
2021/08/07 01:39:28;;;;;;;6.78;4.20;;;;;;;11.70;97.58;98254.77;4002255;86;21055;-83
2021/08/07 01:45:32;;;;;;;10.32;4.08;;;;;;;11.83;98.04;98257.25;4060364;85;21082;-83
2021/08/07 01:51:45;;;;;;;8.85;3.95;;;;;;;11.96;97.95;98261.69;4046997;85;21047;-83
2021/08/07 01:57:55;;;;;;;5.67;3.70;;;;;;;12.01;97.95;98257.91;4065165;85;21467;-83
2021/08/07 02:03:59;;;;;;;12.15;4.30;;;;;;;12.10;97.81;98265.70;4061443;85;21538;-83
2021/08/07 02:10:05;;;;;;;9.63;4.05;;;;;;;12.02;97.48;98257.33;4059152;85;21644;-83
2021/08/07 02:16:09;;;;;;;9.23;4.03;;;;;;;11.98;97.77;98266.19;4142406;83;21560;-83
2021/08/07 02:22:11;;;;;;;5.30;3.40;;;;;;;12.05;97.88;98262.01;4138315;83;21003;-84
2021/08/07 02:28:14;;;;;;;7.62;4.90;;;;;;;12.10;97.96;98268.45;4130972;83;21102;-83
2021/08/07 02:34:18;;;;;;;7.00;4.45;;;;;;;12.13;98.36;98266.27;4127236;84;21001;-83
2021/08/07 02:40:21;;;;;;;7.53;3.80;;;;;;;12.11;97.88;98268.05;4124923;83;21042;-83
2021/08/07 02:46:26;;;;;;;6.90;3.85;;;;;;;12.01;98.31;98259.89;4132087;83;21484;-83
2021/08/07 02:52:31;;;;;;;6.50;3.60;;;;;;;11.98;97.84;98261.46;4138849;84;21111;-84
2021/08/07 02:58:33;;;;;;;8.88;4.28;;;;;;;11.83;97.45;98277.03;4122905;84;21587;-83
2021/08/07 03:04:35;;;;;;;5.58;4.03;;;;;;;11.80;98.72;98280.57;4155456;83;21576;-86
2021/08/07 03:10:37;;;;;;;7.05;4.15;;;;;;;11.87;98.19;98277.20;4149036;83;21008;-84
2021/08/07 03:16:42;;;;;;;8.03;4.50;;;;;;;11.71;97.94;98283.77;4134016;83;21711;-84
2021/08/07 03:22:45;;;;;;;6.70;3.92;;;;;;;11.77;98.06;98283.53;4063441;84;43046;-83
2021/08/07 03:28:47;;;;;;;7.33;3.52;;;;;;;11.75;97.99;98280.98;4076560;85;21081;-84
2021/08/07 03:34:50;;;;;;;8.23;3.60;;;;;;;11.44;97.43;98278.55;4068771;85;21086;-84
2021/08/07 03:40:52;;;;;;;7.60;3.55;;;;;;;11.55;98.59;98286.14;4064332;84;21059;-84
2021/08/07 03:46:54;;;;;;;8.83;4.45;;;;;;;11.63;98.09;98284.19;4134935;83;21612;-83
2021/08/07 03:52:56;;;;;;;5.03;3.72;;;;;;;11.69;98.34;98288.86;4145293;84;21075;-84
2021/08/07 03:58:58;;;;;;;6.45;3.22;;;;;;;11.71;98.14;98285.72;4138171;84;21411;-84
2021/08/07 04:05:01;;;;;;;8.35;3.58;;;;;;;11.65;98.18;98281.22;4149335;83;21086;-84
2021/08/07 04:11:03;;;;;;;3.83;3.05;;;;;;;11.70;98.66;98292.39;4138221;83;21564;-85
2021/08/07 04:17:06;;;;;;;7.40;3.67;;;;;;;11.77;99.07;98301.36;4025909;86;21070;-86
2021/08/07 04:23:08;;;;;;;11.35;3.80;;;;;;;11.95;99.14;98313.62;4178159;83;21040;-84
2021/08/07 04:29:11;;;;;;;10.23;4.08;;;;;;;11.95;99.28;98310.88;4121054;84;21543;-84
2021/08/07 04:35:13;;;;;;;10.03;4.22;;;;;;;12.10;99.53;98310.39;4145039;83;21631;-84
2021/08/07 04:41:16;;;;;;;8.25;4.53;;;;;;;12.18;99.60;98307.77;4135605;83;21047;-84
2021/08/07 04:47:17;;;;;;;9.30;4.78;;;;;;;12.36;99.66;98307.66;4194856;82;21065;-84
2021/08/07 04:53:19;;;;;;;12.00;5.95;;;;;;;12.53;99.94;98319.10;4158888;83;21144;-83
2021/08/07 04:59:22;;;;;;;10.93;6.03;;;;;;;12.73;99.99;98322.10;4158517;83;21075;-84
2021/08/07 05:05:24;;;;;;;11.83;5.47;;;;;;;12.88;100.00;98330.40;4154231;83;21059;-85
2021/08/07 05:11:25;;;;;;;7.95;5.65;;;;;;;13.01;99.81;98330.13;4166862;83;21055;-85
2021/08/07 05:17:28;;;;;;;9.43;5.45;;;;;;;13.19;99.95;98325.22;4161253;83;21051;-84
2021/08/07 05:23:30;;;;;;;8.65;5.20;;;;;;;13.34;100.00;98344.53;4167587;83;21590;-84
2021/08/07 05:29:31;;;;;;;8.30;5.17;;;;;;;13.57;100.00;98340.54;4165225;83;21060;-83
2021/08/07 05:35:33;;;;;;;6.83;3.80;;;;;;;13.80;100.00;98346.16;4179174;83;21094;-84
2021/08/07 05:41:34;;;;;;;8.40;4.00;;;;;;;14.04;100.00;98350.00;4154661;83;21091;-84
2021/08/07 05:47:35;;;;;;;4.30;3.40;;;;;;;14.28;100.00;98345.38;4181125;83;21004;-84
2021/08/07 05:53:38;;;;;;;8.45;3.60;;;;;;;14.52;100.00;98345.60;4181851;83;21008;-84
2021/08/07 05:59:40;;;;;;;7.30;3.20;;;;;;;14.74;100.00;98348.22;4164787;83;21107;-84
2021/08/07 06:05:42;;;;;;;9.53;4.20;;;;;;;15.03;100.00;98346.57;4186660;83;21408;-84
2021/08/07 06:11:44;;;;;;;4.85;3.02;;;;;;;15.38;100.00;98347.93;4153835;83;21043;-84
2021/08/07 06:17:46;;;;;;;4.87;3.10;;;;;;;15.70;100.00;98348.13;4156854;83;21027;-84
2021/08/07 06:23:48;;;;;;;4.45;2.95;;;;;;;16.06;100.00;98356.45;4152841;83;21063;-85
2021/08/07 06:29:51;;;;;;;7.72;3.58;;;;;;;16.44;100.00;98357.05;4173737;83;21049;-84
2021/08/07 06:35:52;;;;;;;9.88;4.62;;;;;;;16.79;100.00;98355.42;4166304;83;21083;-85
2021/08/07 06:41:54;;;;;;;7.95;4.45;;;;;;;17.11;100.00;98360.97;4165058;83;21480;-85
2021/08/07 06:47:57;;;;;;;9.65;3.77;;;;;;;17.35;100.00;98351.27;4153287;83;21039;-84
2021/08/07 06:53:58;;;;;;;7.90;4.45;;;;;;;17.58;100.00;98356.61;4097740;84;21066;-84
2021/08/07 07:00:09;;;;;;;7.30;4.33;;;;;;;17.80;100.00;98356.80;4099227;84;21407;-83
2021/08/07 07:06:09;;;;;;;10.43;3.58;;;;;;;18.09;100.00;98367.22;4092140;85;21123;-83
2021/08/07 07:12:13;;;;;;;4.80;2.42;;;;;;;18.44;100.00;98371.77;4074439;85;21081;-84
2021/08/07 07:18:14;;;;;;;3.98;3.02;;;;;;;18.67;99.52;98372.23;4174141;82;20979;-84
2021/08/07 07:24:17;;;;;;;4.08;2.20;;;;;;;18.83;98.99;98367.77;4172153;83;22348;-85
2021/08/07 07:30:19;;;;;;;3.15;2.42;;;;;;;19.01;98.54;98368.00;4162743;82;21362;-84
2021/08/07 07:36:21;;;;;;;4.22;2.47;;;;;;;19.26;97.93;98371.52;4175077;83;21013;-84
2021/08/07 07:42:22;;;;;;;5.22;2.60;;;;;;;19.66;97.53;98375.91;4153343;83;21002;-83
2021/08/07 07:48:24;;;;;;;3.70;2.58;;;;;;;20.06;97.14;98381.78;4178949;83;21606;-86
2021/08/07 07:54:27;;;;;;;3.40;2.10;;;;;;;20.61;96.48;98382.91;4163116;83;21492;-83
2021/08/07 08:00:29;;;;;;;2.87;2.35;;;;;;;21.18;94.84;98387.80;4161501;83;21024;-85
2021/08/07 08:06:31;;;;;;;3.87;2.30;;;;;;;21.71;93.85;98381.38;4153731;83;21039;-84
2021/08/07 08:12:32;;;;;;;5.60;2.40;;;;;;;22.12;92.49;98393.93;4160951;83;21500;-81
2021/08/07 08:18:34;;;;;;;3.30;1.60;;;;;;;22.29;90.69;98401.50;4160278;83;21078;-80
2021/08/07 08:24:35;;;;;;;2.22;1.60;;;;;;;22.19;89.61;98393.63;4171034;83;21614;-81
2021/08/07 08:30:39;;;;;;;2.45;1.50;;;;;;;22.15;89.60;98399.36;4163709;83;21075;-81
2021/08/07 08:36:42;;;;;;;3.12;1.37;;;;;;;22.26;88.51;98406.63;4168732;83;21886;-81
2021/08/07 08:42:45;;;;;;;2.90;1.60;;;;;;;22.30;87.59;98403.05;4158150;83;21067;-82
2021/08/07 08:48:47;;;;;;;1.85;1.42;;;;;;;22.25;85.93;98402.91;4165449;83;21098;-82
2021/08/07 08:54:49;;;;;;;1.60;1.32;;;;;;;22.18;85.41;98410.97;4160970;83;21559;-84
2021/08/07 09:00:51;;;;;;;2.62;1.47;;;;;;;22.32;84.84;98408.16;4172733;83;21574;-81
2021/08/07 09:06:54;;;;;;;2.77;1.50;;;;;;;22.55;84.75;98411.08;4151598;83;21024;-82
2021/08/07 09:13:03;;;;;;;1.98;1.37;;;;;;;22.79;83.41;98398.61;4179110;83;21039;-82
2021/08/07 09:19:02;;;;;;;1.65;1.40;;;;;;;22.94;82.01;98400.89;4153688;83;21030;-83
2021/08/07 09:25:16;;;;;;;3.42;1.27;;;;;;;23.21;81.74;98404.31;4155639;83;21375;-82
2021/08/07 09:31:20;;;;;;;1.82;1.20;;;;;;;23.56;79.92;98412.98;4168562;83;21553;-82
2021/08/07 09:37:22;;;;;;;1.85;1.45;;;;;;;23.63;78.95;98406.28;4154710;83;21390;-82
2021/08/07 09:43:44;;;;;;;2.58;1.15;;;;;;;23.39;78.46;98410.46;4158802;83;21002;-83
2021/08/07 09:49:46;;;;;;;1.40;0.82;;;;;;;23.56;78.06;98414.39;4160735;83;21025;-83
2021/08/07 09:56:05;;;;;;;1.10;0.60;;;;;;;25.46;75.00;98410.48;4153735;83;21010;-82
2021/08/07 10:02:26;;;;;;;2.80;0.98;;;;;;;25.46;75.00;98410.48;4156241;83;21097;-83
2021/08/07 10:08:35;;;;;;;1.07;0.70;;;;;;;26.21;73.30;98416.02;4163041;83;21120;-82
2021/08/07 10:14:39;;;;;;;1.62;0.80;;;;;;;27.08;71.99;98413.13;4147849;83;21584;-83
2021/08/07 10:20:43;;;;;;;2.12;1.17;;;;;;;26.89;69.62;98412.73;4136747;83;21560;-82
2021/08/07 10:26:47;;;;;;;1.72;0.70;;;;;;;27.06;68.21;98412.88;4163528;83;21086;-83
2021/08/07 10:32:50;;;;;;;1.05;0.85;;;;;;;27.37;67.77;98409.43;4163147;83;21031;-83
2021/08/07 10:38:51;;;;;;;1.60;0.80;;;;;;;27.46;60.37;98409.84;4162371;82;21047;-84
2021/08/07 10:44:56;;;;;;;0.80;0.70;;;;;;;26.72;63.13;98420.91;4163886;83;21037;-82
2021/08/07 10:50:58;;;;;;;2.12;0.60;;;;;;;26.74;62.55;98424.75;4139088;83;21004;-82
2021/08/07 10:57:01;;;;;;;1.52;0.90;;;;;;;27.06;62.02;98417.84;4153162;83;21492;-82
2021/08/07 11:03:14;;;;;;;1.32;0.90;;;;;;;27.50;61.32;98424.45;4162385;83;22127;-83
2021/08/07 11:09:41;;;;;;;1.22;0.78;;;;;;;27.87;59.05;98417.34;4134723;83;21533;-82
2021/08/07 11:15:42;;;;;;;1.57;0.75;;;;;;;28.10;59.20;98414.76;4158340;83;21051;-83
2021/08/07 11:21:51;;;;;;;1.10;0.80;;;;;;;28.76;57.50;98409.30;4182942;83;21084;-82
2021/08/07 11:28:03;;;;;;;1.75;0.95;;;;;;;28.68;57.59;98398.41;4161661;83;21023;-83
2021/08/07 11:34:23;;;;;;;1.40;1.00;;;;;;;28.24;56.09;98395.48;4163100;83;21482;-83
2021/08/07 11:40:41;;;;;;;1.65;1.10;;;;;;;28.23;55.46;98391.92;4144965;83;21752;-84
2021/08/07 11:46:42;;;;;;;2.37;0.90;;;;;;;28.58;55.25;98385.87;4159927;83;21512;-82
2021/08/07 11:52:43;;;;;;;2.58;0.88;;;;;;;28.98;55.47;98396.62;4126303;83;21044;-82
2021/08/07 11:58:55;;;;;;;1.30;0.82;;;;;;;29.08;53.95;98402.79;4143787;83;21055;-83
2021/08/07 12:05:09;;;;;;;1.60;0.75;;;;;;;28.85;53.40;98392.91;4127790;84;21048;-81
2021/08/07 12:11:14;;;;;;;2.47;1.00;;;;;;;28.35;52.69;98389.88;4126023;84;21550;-82
2021/08/07 12:17:15;;;;;;;1.95;0.72;;;;;;;28.16;51.77;98389.59;4124471;84;21134;-80
2021/08/07 12:23:17;;;;;;;1.52;0.70;;;;;;;27.90;49.76;98385.41;4112734;84;21036;-81
2021/08/07 12:29:23;;;;;;;0.98;0.68;;;;;;;27.48;49.99;98385.60;4063992;85;21055;-81
2021/08/07 12:35:31;;;;;;;0.98;0.75;;;;;;;27.05;50.25;98384.02;4022337;85;21104;-81
2021/08/07 12:41:32;;;;;;;1.47;0.72;;;;;;;26.49;50.18;98372.80;4060159;85;21083;-83
2021/08/07 12:47:35;;;;;;;1.37;0.68;;;;;;;26.31;50.96;98371.09;4069651;85;21046;-83
2021/08/07 12:53:46;;;;;;;2.95;1.10;;;;;;;26.10;51.37;98373.83;4078594;85;21031;-81
2021/08/07 12:59:55;;;;;;;1.17;1.00;;;;;;;25.87;50.18;98371.37;4075750;85;21084;-83
2021/08/07 13:06:03;;;;;;;2.37;1.25;;;;;;;25.72;50.43;98353.09;4072596;85;21581;-82
2021/08/07 13:12:18;;;;;;;1.02;0.80;;;;;;;25.59;49.59;98352.70;4077377;85;21224;-82
2021/08/07 13:18:19;;;;;;;0.80;0.60;;;;;;;25.56;46.67;98355.83;4070517;85;21284;-82
2021/08/07 13:24:31;;;;;;;1.37;0.78;;;;;;;25.57;46.85;98354.59;4085754;85;21079;-82
2021/08/07 13:30:43;;;;;;;1.60;0.80;;;;;;;25.59;48.00;98359.05;4096728;85;21081;-82
2021/08/07 13:36:44;;;;;;;1.27;0.85;;;;;;;25.60;48.58;98354.23;4069462;85;21085;-81
2021/08/07 13:42:46;;;;;;;1.40;0.93;;;;;;;25.46;49.83;98353.05;4076682;85;21004;-81
2021/08/07 13:48:47;;;;;;;0.75;0.68;;;;;;;25.39;49.20;98347.06;4067062;85;21070;-82
2021/08/07 13:54:48;;;;;;;1.62;0.80;;;;;;;25.36;49.72;98345.25;4080512;85;21118;-81
2021/08/07 14:00:50;;;;;;;3.10;0.50;;;;;;;25.29;49.28;98341.45;4074738;84;21604;-81
2021/08/07 14:06:51;;;;;;;2.98;0.90;;;;;;;25.20;49.42;98334.58;4095855;85;21679;-82
2021/08/07 14:12:53;;;;;;;1.87;0.95;;;;;;;25.17;49.48;98338.33;4163098;83;21063;-81
2021/08/07 14:18:54;;;;;;;1.22;0.70;;;;;;;25.13;50.11;98330.78;4160874;83;20995;-81
2021/08/07 14:24:55;;;;;;;1.50;0.80;;;;;;;25.13;49.69;98313.35;4164916;83;21098;-81
2021/08/07 14:30:57;;;;;;;3.22;0.75;;;;;;;25.19;50.28;98319.02;4166740;83;20946;-81
2021/08/07 14:36:59;;;;;;;2.52;1.00;;;;;;;25.08;50.43;98312.64;4148371;83;21594;-81
2021/08/07 14:43:01;;;;;;;1.55;0.90;;;;;;;25.21;50.55;98319.30;4167971;83;20980;-82
2021/08/07 14:49:02;;;;;;;1.17;0.90;;;;;;;25.16;51.00;98310.97;4156240;83;21117;-83
2021/08/07 14:55:05;;;;;;;2.83;1.10;;;;;;;25.25;48.15;98304.45;4157060;83;21651;-81
2021/08/07 15:01:09;;;;;;;1.40;0.98;;;;;;;25.37;47.31;98290.12;4154877;83;21007;-80
2021/08/07 15:07:09;;;;;;;1.60;0.95;;;;;;;25.37;47.31;98290.12;4162427;83;21023;-82
2021/08/07 15:13:11;;;;;;;1.55;1.15;;;;;;;25.34;48.40;98299.52;4160836;83;21559;-81
2021/08/07 15:19:12;;;;;;;3.22;1.00;;;;;;;25.28;48.96;98302.06;4163619;83;20981;-83
2021/08/07 15:25:13;;;;;;;1.95;1.07;;;;;;;25.36;49.14;98301.82;4157050;83;20992;-81
2021/08/07 15:31:16;;;;;;;1.90;1.10;;;;;;;25.23;49.93;98297.94;4160643;83;21447;-82
2021/08/07 15:37:18;;;;;;;2.10;1.12;;;;;;;25.16;50.71;98303.97;4173081;83;21452;-80
2021/08/07 15:43:20;;;;;;;1.50;1.37;;;;;;;25.04;51.00;98292.48;4148477;83;21047;-82
2021/08/07 15:49:22;;;;;;;1.50;1.17;;;;;;;24.95;51.02;98285.59;4103285;84;21554;-81
2021/08/07 15:55:24;;;;;;;2.25;1.30;;;;;;;24.88;51.82;98295.81;4104497;84;21082;-82
2021/08/07 16:01:25;;;;;;;2.80;1.75;;;;;;;24.78;52.05;98297.80;4136121;84;21554;-81
2021/08/07 16:07:27;;;;;;;4.40;2.90;;;;;;;25.01;50.09;98292.69;4158162;83;21067;-82
2021/08/07 16:13:28;;;;;;;4.62;2.42;;;;;;;24.98;51.37;98298.62;4159223;83;21077;-82
2021/08/07 16:19:29;;;;;;;3.52;2.42;;;;;;;25.08;51.20;98290.86;4170976;83;21097;-82
2021/08/07 16:25:31;;;;;;;3.12;2.17;;;;;;;24.94;51.70;98275.66;4039957;83;10000298;-82
2021/08/07 16:31:33;;;;;;;4.62;1.60;;;;;;;24.90;52.15;98272.28;4168088;83;21691;-80
2021/08/07 16:37:34;;;;;;;2.42;1.40;;;;;;;24.71;53.04;98278.02;4178726;83;21050;-81
2021/08/07 16:43:36;;;;;;;2.95;1.30;;;;;;;24.54;53.68;98274.17;4178713;83;21764;-81
2021/08/07 16:49:37;;;;;;;2.83;1.67;;;;;;;24.42;53.75;98278.80;4178074;83;21027;-82
2021/08/07 16:55:40;;;;;;;3.30;2.30;;;;;;;24.34;54.30;98279.67;4168614;83;21046;-82
2021/08/07 17:01:41;;;;;;;3.08;1.80;;;;;;;24.22;54.58;98280.75;4173355;83;21145;-82
2021/08/07 17:07:42;;;;;;;3.65;1.90;;;;;;;24.09;55.14;98279.65;4169443;83;21504;-81
2021/08/07 17:13:45;;;;;;;2.20;1.42;;;;;;;23.96;55.85;98271.39;4186953;83;21062;-82
2021/08/07 17:19:47;;;;;;;3.05;1.60;;;;;;;23.84;56.61;98270.41;4185659;83;21039;-82
2021/08/07 17:25:48;;;;;;;2.95;1.90;;;;;;;23.73;57.34;98280.59;4187683;83;21057;-84
2021/08/07 17:31:54;;;;;;;5.83;2.45;;;;;;;23.59;58.03;98284.14;4173971;83;21113;-81
2021/08/07 17:37:55;;;;;;;4.67;2.37;;;;;;;23.42;59.01;98284.44;4168613;83;21342;-82
2021/08/07 17:43:57;;;;;;;4.75;3.50;;;;;;;23.26;59.85;98285.64;4157867;83;21015;-82
2021/08/07 17:49:58;;;;;;;7.92;4.47;;;;;;;23.07;60.94;98282.80;4170993;83;21062;-82
2021/08/07 17:56:00;;;;;;;8.60;4.65;;;;;;;22.92;61.77;98282.75;4172432;83;21064;-81
2021/08/07 18:02:01;;;;;;;15.13;6.97;;;;;;;22.87;62.39;98298.75;4169640;83;21163;-82
2021/08/07 18:08:02;;;;;;;12.98;8.20;;;;;;;22.75;62.84;98310.91;4167331;83;21598;-81
2021/08/07 18:14:05;;;;;;;10.53;6.30;;;;;;;22.64;63.22;98307.08;4175783;83;21063;-82
2021/08/07 18:20:08;;;;;;;11.48;6.87;;;;;;;22.52;63.54;98308.82;4181219;83;21052;-81
2021/08/07 18:26:10;;;;;;;10.18;6.67;;;;;;;22.42;63.88;98317.67;4173992;83;21036;-81
2021/08/07 18:32:11;;;;;;;15.03;9.58;;;;;;;22.30;64.19;98317.25;4165301;83;20984;-82
2021/08/07 18:38:12;;;;;;;18.92;13.32;;;;;;;22.13;64.98;98318.84;4177520;83;21169;-83
2021/08/07 18:44:14;;;;;;;18.85;12.50;;;;;;;22.00;65.12;98321.03;4172624;83;21024;-82
2021/08/07 18:50:16;;;;;;;19.32;12.20;;;;;;;21.87;65.69;98323.98;4170437;83;20987;-82
2021/08/07 18:56:18;;;;;;;17.52;10.88;;;;;;;21.70;66.18;98329.09;4171082;83;21020;-81
2021/08/07 19:02:19;;;;;;;22.67;12.70;;;;;;;21.56;66.52;98327.53;4169851;83;21527;-82
2021/08/07 19:08:21;;;;;;;26.20;14.30;;;;;;;21.36;67.11;98323.05;4161144;83;21028;-82
2021/08/07 19:14:22;;;;;;;22.20;14.03;;;;;;;21.04;67.83;98321.59;4172845;83;21082;-81
2021/08/07 19:20:23;;;;;;;19.20;10.82;;;;;;;20.75;68.71;98317.63;4175559;83;21543;-81
2021/08/07 19:26:25;;;;;;;17.98;8.75;;;;;;;20.52;69.84;98309.80;4176753;83;21417;-80
2021/08/07 19:32:26;;;;;;;12.68;8.40;;;;;;;20.39;70.30;98304.97;4159223;83;21631;-81
2021/08/07 19:38:30;;;;;;;14.28;8.88;;;;;;;20.23;70.88;98306.73;4163470;83;21841;-81
2021/08/07 19:44:31;;;;;;;17.42;9.93;;;;;;;20.03;71.64;98302.12;4177155;83;21102;-81
2021/08/07 19:50:33;;;;;;;18.45;10.10;;;;;;;19.85;72.12;98301.23;4172246;83;21004;-81
2021/08/07 19:56:36;;;;;;;21.15;12.33;;;;;;;19.59;72.72;98292.88;4171716;83;21663;-81
2021/08/07 20:02:37;;;;;;;19.27;12.07;;;;;;;19.41;73.30;98301.83;4160114;83;21027;-83
2021/08/07 20:08:38;;;;;;;20.40;13.10;;;;;;;19.31;73.98;98306.38;4162569;83;21057;-81
2021/08/07 20:14:40;;;;;;;17.07;10.88;;;;;;;19.25;74.65;98305.34;4184758;83;20999;-81
2021/08/07 20:20:41;;;;;;;15.53;10.68;;;;;;;19.09;75.40;98314.59;4165385;83;21715;-81
2021/08/07 20:26:42;;;;;;;17.75;11.78;;;;;;;18.96;75.65;98311.09;4170702;83;21082;-83
2021/08/07 20:32:44;;;;;;;15.80;10.78;;;;;;;18.80;75.89;98308.45;4173573;83;21115;-80
2021/08/07 20:38:45;;;;;;;14.87;10.15;;;;;;;18.73;76.18;98295.44;4160872;83;21008;-80
2021/08/07 20:44:46;;;;;;;18.50;10.70;;;;;;;18.53;76.90;98299.21;4023897;86;21080;-81
2021/08/07 20:50:48;;;;;;;18.37;9.93;;;;;;;18.44;77.47;98290.80;4036274;86;21066;-84
2021/08/07 20:56:49;;;;;;;15.98;9.53;;;;;;;18.32;78.00;98290.14;4096106;84;21063;-81
2021/08/07 21:02:51;;;;;;;20.32;8.35;;;;;;;18.26;78.41;98298.84;4142843;84;21077;-81
2021/08/07 21:08:52;;;;;;;11.95;8.53;;;;;;;18.22;78.90;98307.09;4030193;85;21113;-84
2021/08/07 21:14:53;;;;;;;19.20;14.33;;;;;;;18.21;78.99;98308.32;4134690;84;20995;-81
2021/08/07 21:20:54;;;;;;;15.32;11.03;;;;;;;18.02;79.38;98318.38;4144614;83;21026;-81
2021/08/07 21:26:56;;;;;;;14.53;10.00;;;;;;;17.87;79.65;98305.39;4170753;83;20995;-84
2021/08/07 21:32:57;;;;;;;24.37;9.40;;;;;;;17.72;80.26;98306.98;4158823;83;21579;-81
2021/08/07 21:38:58;;;;;;;26.87;10.75;;;;;;;17.68;81.10;98307.08;4159326;83;21130;-81
2021/08/07 21:45:00;;;;;;;16.95;10.82;;;;;;;17.76;81.65;98319.52;4172654;83;21095;-81
2021/08/07 21:51:01;;;;;;;16.65;9.85;;;;;;;17.77;81.68;98328.01;4151941;83;20993;-81
2021/08/07 21:57:03;;;;;;;18.10;9.43;;;;;;;17.72;82.22;98330.52;4149299;83;21049;-81
2021/08/07 22:03:06;;;;;;;14.35;9.78;;;;;;;17.51;81.99;98330.49;4172553;83;21514;-81
2021/08/07 22:09:08;;;;;;;19.10;10.63;;;;;;;17.35;82.26;98340.80;4156502;83;21129;-81
2021/08/07 22:15:11;;;;;;;18.80;12.03;;;;;;;17.32;82.90;98331.99;4151785;83;21011;-81
2021/08/07 22:21:12;;;;;;;22.75;16.80;;;;;;;17.28;83.17;98336.83;4171399;83;21549;-81
2021/08/07 22:27:16;;;;;;;17.05;13.43;;;;;;;17.17;83.65;98335.72;4150433;83;21003;-84
2021/08/07 22:33:18;;;;;;;20.08;14.87;;;;;;;17.13;83.84;98333.05;4170751;83;21028;-82
2021/08/07 22:39:20;;;;;;;18.25;11.28;;;;;;;17.02;84.06;98313.17;4162994;83;21062;-83
2021/08/07 22:45:21;;;;;;;16.40;12.60;;;;;;;16.85;84.53;98314.40;4148954;83;21613;-81
2021/08/07 22:51:23;;;;;;;18.17;11.60;;;;;;;16.84;85.27;98329.44;4163951;83;21041;-80
2021/08/07 22:57:24;;;;;;;18.60;12.58;;;;;;;16.84;86.52;98324.51;4169815;83;21027;-81
2021/08/07 23:03:25;;;;;;;17.48;11.65;;;;;;;16.82;86.18;98331.85;4169582;83;21023;-80
2021/08/07 23:09:27;;;;;;;21.80;12.60;;;;;;;16.83;86.51;98314.08;4161697;83;21039;-82
2021/08/07 23:15:29;;;;;;;16.52;11.93;;;;;;;16.81;86.80;98305.43;4161145;83;21022;-81
2021/08/07 23:21:30;;;;;;;16.30;12.47;;;;;;;16.84;86.78;98304.56;4178093;82;21045;-81
2021/08/07 23:27:31;;;;;;;17.65;9.90;;;;;;;16.79;87.89;98265.00;4176263;83;21008;-81
2021/08/07 23:33:32;;;;;;;17.62;12.58;;;;;;;16.86;89.83;98262.07;4174509;83;21586;-81
2021/08/07 23:39:33;;;;;;;6.45;4.00;;;;;;;16.98;88.53;98255.04;4166270;83;21078;-82
2021/08/07 23:45:35;;;;;;;18.60;9.40;;;;;;;17.59;87.86;98249.43;4160950;83;21091;-81
2021/08/07 23:51:36;;;;;;;18.30;12.05;;;;;;;18.32;85.85;98247.19;4158470;83;21087;-82
2021/08/07 23:57:37;;;;;;;13.35;9.50;;;;;;;17.87;86.25;98251.41;4164967;83;21062;-81
